sensor_id;sensor_type;location;lat;lon;timestamp;P1;durP1;ratioP1;P2;durP2;ratioP2
18653;SDS011;9456;47.824;16.228;2023-04-24T00:00:05;5.20;;;3.93;;
18653;SDS011;9456;47.824;16.228;2023-04-24T00:02:37;4.40;;;3.80;;
18653;SDS011;9456;47.824;16.228;2023-04-24T00:05:06;4.87;;;4.37;;
18653;SDS011;9456;47.824;16.228;2023-04-24T00:07:35;6.17;;;4.70;;
18653;SDS011;9456;47.824;16.228;2023-04-24T00:10:05;4.70;;;3.97;;
18653;SDS011;9456;47.824;16.228;2023-04-24T00:12:35;5.23;;;4.23;;
18653;SDS011;9456;47.824;16.228;2023-04-24T00:15:05;4.10;;;3.73;;
18653;SDS011;9456;47.824;16.228;2023-04-24T00:17:35;6.20;;;4.47;;
18653;SDS011;9456;47.824;16.228;2023-04-24T00:20:05;3.90;;;3.60;;
18653;SDS011;9456;47.824;16.228;2023-04-24T00:22:36;4.67;;;4.13;;
18653;SDS011;9456;47.824;16.228;2023-04-24T00:25:06;4.33;;;4.00;;
18653;SDS011;9456;47.824;16.228;2023-04-24T00:27:35;6.23;;;4.97;;
18653;SDS011;9456;47.824;16.228;2023-04-24T00:30:05;5.07;;;3.90;;
18653;SDS011;9456;47.824;16.228;2023-04-24T00:32:35;6.27;;;4.13;;
18653;SDS011;9456;47.824;16.228;2023-04-24T00:35:06;4.20;;;3.80;;
18653;SDS011;9456;47.824;16.228;2023-04-24T00:37:35;4.70;;;3.77;;
18653;SDS011;9456;47.824;16.228;2023-04-24T00:40:06;6.37;;;4.50;;
18653;SDS011;9456;47.824;16.228;2023-04-24T00:42:36;6.27;;;4.37;;
18653;SDS011;9456;47.824;16.228;2023-04-24T00:45:06;4.50;;;4.10;;
18653;SDS011;9456;47.824;16.228;2023-04-24T00:47:36;4.80;;;4.23;;
18653;SDS011;9456;47.824;16.228;2023-04-24T00:50:07;4.50;;;4.10;;
18653;SDS011;9456;47.824;16.228;2023-04-24T00:52:38;6.40;;;4.43;;
18653;SDS011;9456;47.824;16.228;2023-04-24T00:55:08;4.47;;;4.07;;
18653;SDS011;9456;47.824;16.228;2023-04-24T00:57:38;4.90;;;4.40;;
18653;SDS011;9456;47.824;16.228;2023-04-24T01:00:08;5.13;;;4.60;;
18653;SDS011;9456;47.824;16.228;2023-04-24T01:02:38;5.37;;;4.87;;
18653;SDS011;9456;47.824;16.228;2023-04-24T01:05:08;5.10;;;4.57;;
18653;SDS011;9456;47.824;16.228;2023-04-24T01:07:37;5.27;;;4.77;;
18653;SDS011;9456;47.824;16.228;2023-04-24T01:10:08;4.67;;;4.00;;
18653;SDS011;9456;47.824;16.228;2023-04-24T01:12:38;6.60;;;4.53;;
18653;SDS011;9456;47.824;16.228;2023-04-24T01:15:08;6.50;;;4.40;;
18653;SDS011;9456;47.824;16.228;2023-04-24T01:17:38;4.27;;;3.77;;
18653;SDS011;9456;47.824;16.228;2023-04-24T01:20:08;5.00;;;4.60;;
18653;SDS011;9456;47.824;16.228;2023-04-24T01:22:38;5.00;;;4.50;;
18653;SDS011;9456;47.824;16.228;2023-04-24T01:25:07;4.57;;;4.07;;
18653;SDS011;9456;47.824;16.228;2023-04-24T01:27:37;4.50;;;4.10;;
18653;SDS011;9456;47.824;16.228;2023-04-24T01:30:07;7.70;;;4.37;;
18653;SDS011;9456;47.824;16.228;2023-04-24T01:32:37;4.90;;;4.40;;
18653;SDS011;9456;47.824;16.228;2023-04-24T01:35:07;5.07;;;4.60;;
18653;SDS011;9456;47.824;16.228;2023-04-24T01:37:37;5.13;;;4.63;;
18653;SDS011;9456;47.824;16.228;2023-04-24T01:40:07;5.63;;;4.33;;
18653;SDS011;9456;47.824;16.228;2023-04-24T01:42:37;6.30;;;4.40;;
18653;SDS011;9456;47.824;16.228;2023-04-24T01:45:07;5.10;;;4.70;;
18653;SDS011;9456;47.824;16.228;2023-04-24T01:47:36;5.20;;;4.70;;
18653;SDS011;9456;47.824;16.228;2023-04-24T01:50:06;7.73;;;4.73;;
18653;SDS011;9456;47.824;16.228;2023-04-24T01:52:38;8.93;;;5.23;;
18653;SDS011;9456;47.824;16.228;2023-04-24T01:55:08;4.90;;;4.50;;
18653;SDS011;9456;47.824;16.228;2023-04-24T01:57:38;6.20;;;4.87;;
18653;SDS011;9456;47.824;16.228;2023-04-24T02:00:08;6.53;;;4.43;;
18653;SDS011;9456;47.824;16.228;2023-04-24T02:02:38;7.37;;;5.17;;
18653;SDS011;9456;47.824;16.228;2023-04-24T02:05:08;7.13;;;5.30;;
18653;SDS011;9456;47.824;16.228;2023-04-24T02:07:37;6.23;;;5.63;;
18653;SDS011;9456;47.824;16.228;2023-04-24T02:10:07;6.37;;;5.43;;
18653;SDS011;9456;47.824;16.228;2023-04-24T02:12:39;6.23;;;5.63;;
18653;SDS011;9456;47.824;16.228;2023-04-24T02:15:09;7.07;;;5.90;;
18653;SDS011;9456;47.824;16.228;2023-04-24T02:20:28;8.20;;;5.67;;
18653;SDS011;9456;47.824;16.228;2023-04-24T02:22:57;5.97;;;5.23;;
18653;SDS011;9456;47.824;16.228;2023-04-24T02:25:26;6.50;;;5.30;;
18653;SDS011;9456;47.824;16.228;2023-04-24T02:27:55;6.10;;;5.50;;
18653;SDS011;9456;47.824;16.228;2023-04-24T02:30:24;6.53;;;5.87;;
18653;SDS011;9456;47.824;16.228;2023-04-24T02:32:53;6.37;;;5.23;;
18653;SDS011;9456;47.824;16.228;2023-04-24T02:35:22;6.43;;;5.40;;
18653;SDS011;9456;47.824;16.228;2023-04-24T02:37:52;6.30;;;5.67;;
18653;SDS011;9456;47.824;16.228;2023-04-24T02:40:21;6.67;;;6.00;;
18653;SDS011;9456;47.824;16.228;2023-04-24T02:42:50;6.47;;;5.30;;
18653;SDS011;9456;47.824;16.228;2023-04-24T02:45:19;5.97;;;5.37;;
18653;SDS011;9456;47.824;16.228;2023-04-24T02:47:48;6.30;;;5.47;;
18653;SDS011;9456;47.824;16.228;2023-04-24T02:50:17;6.47;;;5.67;;
18653;SDS011;9456;47.824;16.228;2023-04-24T02:52:46;6.10;;;5.60;;
18653;SDS011;9456;47.824;16.228;2023-04-24T02:55:15;7.17;;;6.33;;
18653;SDS011;9456;47.824;16.228;2023-04-24T02:57:45;5.43;;;4.93;;
18653;SDS011;9456;47.824;16.228;2023-04-24T03:00:15;5.83;;;5.33;;
18653;SDS011;9456;47.824;16.228;2023-04-24T03:02:45;6.20;;;5.00;;
18653;SDS011;9456;47.824;16.228;2023-04-24T03:05:14;7.20;;;6.27;;
18653;SDS011;9456;47.824;16.228;2023-04-24T03:07:43;7.00;;;6.13;;
18653;SDS011;9456;47.824;16.228;2023-04-24T03:10:12;6.10;;;5.50;;
18653;SDS011;9456;47.824;16.228;2023-04-24T03:12:42;8.00;;;5.10;;
18653;SDS011;9456;47.824;16.228;2023-04-24T03:15:12;6.90;;;6.20;;
18653;SDS011;9456;47.824;16.228;2023-04-24T03:17:41;9.60;;;6.13;;
18653;SDS011;9456;47.824;16.228;2023-04-24T03:20:10;8.47;;;7.33;;
18653;SDS011;9456;47.824;16.228;2023-04-24T03:22:39;6.90;;;6.20;;
18653;SDS011;9456;47.824;16.228;2023-04-24T03:25:10;6.67;;;5.50;;
18653;SDS011;9456;47.824;16.228;2023-04-24T03:27:39;7.07;;;6.07;;
18653;SDS011;9456;47.824;16.228;2023-04-24T03:30:09;6.33;;;5.47;;
18653;SDS011;9456;47.824;16.228;2023-04-24T03:32:38;10.47;;;9.37;;
18653;SDS011;9456;47.824;16.228;2023-04-24T03:35:08;9.63;;;8.63;;
18653;SDS011;9456;47.824;16.228;2023-04-24T03:37:37;7.93;;;7.23;;
18653;SDS011;9456;47.824;16.228;2023-04-24T03:40:08;5.90;;;5.30;;
18653;SDS011;9456;47.824;16.228;2023-04-24T03:42:38;8.73;;;5.57;;
18653;SDS011;9456;47.824;16.228;2023-04-24T03:45:09;6.13;;;4.70;;
18653;SDS011;9456;47.824;16.228;2023-04-24T03:47:38;7.27;;;5.90;;
18653;SDS011;9456;47.824;16.228;2023-04-24T03:50:08;9.43;;;6.07;;
18653;SDS011;9456;47.824;16.228;2023-04-24T03:52:38;8.40;;;6.10;;
18653;SDS011;9456;47.824;16.228;2023-04-24T03:55:08;6.77;;;6.10;;
18653;SDS011;9456;47.824;16.228;2023-04-24T03:57:48;7.63;;;5.67;;
18653;SDS011;9456;47.824;16.228;2023-04-24T04:00:17;6.13;;;5.50;;
18653;SDS011;9456;47.824;16.228;2023-04-24T04:02:46;9.13;;;6.47;;
18653;SDS011;9456;47.824;16.228;2023-04-24T04:05:24;8.63;;;6.07;;
18653;SDS011;9456;47.824;16.228;2023-04-24T04:07:53;7.87;;;5.67;;
18653;SDS011;9456;47.824;16.228;2023-04-24T04:10:23;7.17;;;5.90;;
18653;SDS011;9456;47.824;16.228;2023-04-24T04:12:52;6.87;;;6.17;;
18653;SDS011;9456;47.824;16.228;2023-04-24T04:15:22;10.07;;;6.13;;
18653;SDS011;9456;47.824;16.228;2023-04-24T04:17:51;10.00;;;5.63;;
18653;SDS011;9456;47.824;16.228;2023-04-24T04:20:20;9.17;;;7.03;;
18653;SDS011;9456;47.824;16.228;2023-04-24T04:22:49;7.63;;;6.10;;
18653;SDS011;9456;47.824;16.228;2023-04-24T04:25:18;7.03;;;6.00;;
18653;SDS011;9456;47.824;16.228;2023-04-24T04:27:47;6.77;;;5.67;;
18653;SDS011;9456;47.824;16.228;2023-04-24T04:30:16;7.67;;;6.17;;
18653;SDS011;9456;47.824;16.228;2023-04-24T04:32:47;6.43;;;5.33;;
18653;SDS011;9456;47.824;16.228;2023-04-24T04:35:17;8.23;;;5.33;;
18653;SDS011;9456;47.824;16.228;2023-04-24T04:37:46;6.63;;;5.47;;
18653;SDS011;9456;47.824;16.228;2023-04-24T04:40:15;7.00;;;5.60;;
18653;SDS011;9456;47.824;16.228;2023-04-24T04:42:44;9.70;;;5.20;;
18653;SDS011;9456;47.824;16.228;2023-04-24T04:45:13;12.23;;;9.33;;
18653;SDS011;9456;47.824;16.228;2023-04-24T04:47:43;11.20;;;8.87;;
18653;SDS011;9456;47.824;16.228;2023-04-24T04:50:12;5.70;;;5.13;;
18653;SDS011;9456;47.824;16.228;2023-04-24T04:52:41;7.93;;;5.30;;
18653;SDS011;9456;47.824;16.228;2023-04-24T04:55:10;5.27;;;4.77;;
18653;SDS011;9456;47.824;16.228;2023-04-24T04:57:40;6.93;;;5.20;;
18653;SDS011;9456;47.824;16.228;2023-04-24T05:00:11;4.80;;;4.40;;
18653;SDS011;9456;47.824;16.228;2023-04-24T05:02:40;9.50;;;4.67;;
18653;SDS011;9456;47.824;16.228;2023-04-24T05:05:09;5.73;;;4.47;;
18653;SDS011;9456;47.824;16.228;2023-04-24T05:07:48;6.17;;;4.73;;
18653;SDS011;9456;47.824;16.228;2023-04-24T05:10:17;4.53;;;4.13;;
18653;SDS011;9456;47.824;16.228;2023-04-24T05:12:46;4.80;;;4.40;;
18653;SDS011;9456;47.824;16.228;2023-04-24T05:15:15;5.03;;;4.53;;
18653;SDS011;9456;47.824;16.228;2023-04-24T05:17:45;4.90;;;4.40;;
18653;SDS011;9456;47.824;16.228;2023-04-24T05:20:14;4.90;;;4.40;;
18653;SDS011;9456;47.824;16.228;2023-04-24T05:22:44;8.37;;;4.87;;
18653;SDS011;9456;47.824;16.228;2023-04-24T05:25:13;5.43;;;4.73;;
18653;SDS011;9456;47.824;16.228;2023-04-24T05:27:42;7.57;;;5.93;;
18653;SDS011;9456;47.824;16.228;2023-04-24T05:30:12;7.40;;;4.97;;
18653;SDS011;9456;47.824;16.228;2023-04-24T05:32:41;7.47;;;5.00;;
18653;SDS011;9456;47.824;16.228;2023-04-24T05:35:10;5.10;;;4.57;;
18653;SDS011;9456;47.824;16.228;2023-04-24T05:37:41;6.13;;;5.10;;
18653;SDS011;9456;47.824;16.228;2023-04-24T05:40:10;5.13;;;4.63;;
18653;SDS011;9456;47.824;16.228;2023-04-24T05:42:39;6.20;;;5.10;;
18653;SDS011;9456;47.824;16.228;2023-04-24T05:45:09;3.97;;;3.60;;
18653;SDS011;9456;47.824;16.228;2023-04-24T05:47:38;5.93;;;3.47;;
18653;SDS011;9456;47.824;16.228;2023-04-24T05:50:08;4.30;;;3.03;;
18653;SDS011;9456;47.824;16.228;2023-04-24T05:52:38;2.73;;;2.23;;
18653;SDS011;9456;47.824;16.228;2023-04-24T05:55:08;2.73;;;1.80;;
18653;SDS011;9456;47.824;16.228;2023-04-24T05:57:37;1.80;;;1.70;;
18653;SDS011;9456;47.824;16.228;2023-04-24T06:00:07;1.83;;;1.57;;
18653;SDS011;9456;47.824;16.228;2023-04-24T06:02:37;2.80;;;2.40;;
18653;SDS011;9456;47.824;16.228;2023-04-24T06:05:07;2.60;;;1.73;;
18653;SDS011;9456;47.824;16.228;2023-04-24T06:07:36;3.97;;;1.93;;
18653;SDS011;9456;47.824;16.228;2023-04-24T06:10:06;1.80;;;1.67;;
18653;SDS011;9456;47.824;16.228;2023-04-24T06:12:36;1.53;;;1.37;;
18653;SDS011;9456;47.824;16.228;2023-04-24T06:15:06;1.70;;;1.50;;
18653;SDS011;9456;47.824;16.228;2023-04-24T06:17:36;1.60;;;1.50;;
18653;SDS011;9456;47.824;16.228;2023-04-24T06:20:06;2.10;;;1.57;;
18653;SDS011;9456;47.824;16.228;2023-04-24T06:22:35;1.60;;;1.40;;
18653;SDS011;9456;47.824;16.228;2023-04-24T06:25:06;2.30;;;1.20;;
18653;SDS011;9456;47.824;16.228;2023-04-24T06:27:35;3.03;;;1.30;;
18653;SDS011;9456;47.824;16.228;2023-04-24T06:30:05;2.37;;;1.37;;
18653;SDS011;9456;47.824;16.228;2023-04-24T06:32:35;1.93;;;1.50;;
18653;SDS011;9456;47.824;16.228;2023-04-24T06:35:05;1.93;;;1.77;;
18653;SDS011;9456;47.824;16.228;2023-04-24T06:37:35;1.47;;;1.10;;
18653;SDS011;9456;47.824;16.228;2023-04-24T06:40:05;5.27;;;2.57;;
18653;SDS011;9456;47.824;16.228;2023-04-24T06:42:35;2.40;;;2.07;;
18653;SDS011;9456;47.824;16.228;2023-04-24T06:45:05;2.00;;;1.70;;
18653;SDS011;9456;47.824;16.228;2023-04-24T06:47:34;1.57;;;1.27;;
18653;SDS011;9456;47.824;16.228;2023-04-24T06:50:04;2.10;;;1.90;;
18653;SDS011;9456;47.824;16.228;2023-04-24T06:52:34;5.23;;;1.97;;
18653;SDS011;9456;47.824;16.228;2023-04-24T06:55:03;1.83;;;1.60;;
18653;SDS011;9456;47.824;16.228;2023-04-24T06:57:33;1.80;;;1.00;;
18653;SDS011;9456;47.824;16.228;2023-04-24T07:00:02;1.33;;;1.23;;
18653;SDS011;9456;47.824;16.228;2023-04-24T07:02:34;1.87;;;1.30;;
18653;SDS011;9456;47.824;16.228;2023-04-24T07:05:03;3.50;;;1.27;;
18653;SDS011;9456;47.824;16.228;2023-04-24T07:07:33;1.70;;;1.60;;
18653;SDS011;9456;47.824;16.228;2023-04-24T07:10:02;1.40;;;1.30;;
18653;SDS011;9456;47.824;16.228;2023-04-24T07:12:32;0.90;;;0.90;;
18653;SDS011;9456;47.824;16.228;2023-04-24T07:15:01;2.03;;;1.93;;
18653;SDS011;9456;47.824;16.228;2023-04-24T07:17:30;2.47;;;1.57;;
18653;SDS011;9456;47.824;16.228;2023-04-24T07:22:39;2.30;;;1.30;;
18653;SDS011;9456;47.824;16.228;2023-04-24T07:25:09;3.07;;;2.77;;
18653;SDS011;9456;47.824;16.228;2023-04-24T07:27:38;1.00;;;1.00;;
18653;SDS011;9456;47.824;16.228;2023-04-24T07:30:08;1.47;;;1.43;;
18653;SDS011;9456;47.824;16.228;2023-04-24T07:32:37;1.50;;;1.40;;
18653;SDS011;9456;47.824;16.228;2023-04-24T07:35:08;1.90;;;1.00;;
18653;SDS011;9456;47.824;16.228;2023-04-24T07:37:37;2.50;;;1.30;;
18653;SDS011;9456;47.824;16.228;2023-04-24T07:40:07;1.03;;;0.93;;
18653;SDS011;9456;47.824;16.228;2023-04-24T07:42:37;0.97;;;0.90;;
18653;SDS011;9456;47.824;16.228;2023-04-24T07:45:07;2.00;;;0.97;;
18653;SDS011;9456;47.824;16.228;2023-04-24T07:47:36;1.23;;;1.13;;
18653;SDS011;9456;47.824;16.228;2023-04-24T07:50:06;1.13;;;1.10;;
18653;SDS011;9456;47.824;16.228;2023-04-24T07:52:36;1.10;;;1.00;;
18653;SDS011;9456;47.824;16.228;2023-04-24T07:55:06;0.80;;;0.80;;
18653;SDS011;9456;47.824;16.228;2023-04-24T07:57:35;2.83;;;1.60;;
18653;SDS011;9456;47.824;16.228;2023-04-24T08:00:05;2.40;;;1.10;;
18653;SDS011;9456;47.824;16.228;2023-04-24T08:02:35;1.53;;;1.30;;
18653;SDS011;9456;47.824;16.228;2023-04-24T08:05:04;1.57;;;1.03;;
18653;SDS011;9456;47.824;16.228;2023-04-24T08:07:34;0.90;;;0.83;;
18653;SDS011;9456;47.824;16.228;2023-04-24T08:10:03;1.23;;;1.23;;
18653;SDS011;9456;47.824;16.228;2023-04-24T08:12:33;1.13;;;1.03;;
18653;SDS011;9456;47.824;16.228;2023-04-24T08:15:02;1.27;;;1.27;;
18653;SDS011;9456;47.824;16.228;2023-04-24T08:17:32;1.80;;;1.23;;
18653;SDS011;9456;47.824;16.228;2023-04-24T08:20:01;1.40;;;1.10;;
18653;SDS011;9456;47.824;16.228;2023-04-24T08:22:30;1.93;;;1.47;;
18653;SDS011;9456;47.824;16.228;2023-04-24T08:25:00;0.90;;;0.80;;
18653;SDS011;9456;47.824;16.228;2023-04-24T08:27:29;0.93;;;0.80;;
18653;SDS011;9456;47.824;16.228;2023-04-24T08:29:58;1.43;;;0.80;;
18653;SDS011;9456;47.824;16.228;2023-04-24T08:32:27;2.97;;;1.00;;
18653;SDS011;9456;47.824;16.228;2023-04-24T08:34:56;2.00;;;0.90;;
18653;SDS011;9456;47.824;16.228;2023-04-24T08:37:25;2.33;;;1.00;;
18653;SDS011;9456;47.824;16.228;2023-04-24T08:39:54;6.17;;;4.90;;
18653;SDS011;9456;47.824;16.228;2023-04-24T08:42:23;2.57;;;1.70;;
18653;SDS011;9456;47.824;16.228;2023-04-24T08:44:52;2.33;;;1.43;;
18653;SDS011;9456;47.824;16.228;2023-04-24T08:47:21;2.20;;;0.97;;
18653;SDS011;9456;47.824;16.228;2023-04-24T08:49:50;0.97;;;0.80;;
18653;SDS011;9456;47.824;16.228;2023-04-24T08:52:19;0.83;;;0.83;;
18653;SDS011;9456;47.824;16.228;2023-04-24T08:54:48;0.63;;;0.63;;
18653;SDS011;9456;47.824;16.228;2023-04-24T08:57:17;1.17;;;1.03;;
18653;SDS011;9456;47.824;16.228;2023-04-24T08:59:46;0.90;;;0.90;;
18653;SDS011;9456;47.824;16.228;2023-04-24T09:02:15;3.27;;;1.00;;
18653;SDS011;9456;47.824;16.228;2023-04-24T09:04:44;1.20;;;0.83;;
18653;SDS011;9456;47.824;16.228;2023-04-24T09:07:13;0.80;;;0.73;;
18653;SDS011;9456;47.824;16.228;2023-04-24T09:09:42;1.00;;;1.00;;
18653;SDS011;9456;47.824;16.228;2023-04-24T09:12:13;0.90;;;0.83;;
18653;SDS011;9456;47.824;16.228;2023-04-24T09:14:42;1.07;;;0.90;;
18653;SDS011;9456;47.824;16.228;2023-04-24T09:17:11;0.80;;;0.80;;
18653;SDS011;9456;47.824;16.228;2023-04-24T09:19:40;1.97;;;0.90;;
18653;SDS011;9456;47.824;16.228;2023-04-24T09:22:09;0.93;;;0.70;;
18653;SDS011;9456;47.824;16.228;2023-04-24T09:24:38;0.60;;;0.60;;
18653;SDS011;9456;47.824;16.228;2023-04-24T09:27:10;0.43;;;0.40;;
18653;SDS011;9456;47.824;16.228;2023-04-24T09:29:38;0.73;;;0.70;;
18653;SDS011;9456;47.824;16.228;2023-04-24T09:35:11;0.60;;;0.60;;
18653;SDS011;9456;47.824;16.228;2023-04-24T09:37:40;1.53;;;1.43;;
18653;SDS011;9456;47.824;16.228;2023-04-24T09:40:13;0.80;;;0.80;;
18653;SDS011;9456;47.824;16.228;2023-04-24T09:42:44;0.90;;;0.90;;
18653;SDS011;9456;47.824;16.228;2023-04-24T09:45:13;0.73;;;0.73;;
18653;SDS011;9456;47.824;16.228;2023-04-24T09:47:42;0.63;;;0.63;;
18653;SDS011;9456;47.824;16.228;2023-04-24T09:50:12;0.73;;;0.73;;
18653;SDS011;9456;47.824;16.228;2023-04-24T09:52:45;0.67;;;0.67;;
18653;SDS011;9456;47.824;16.228;2023-04-24T09:55:18;0.80;;;0.80;;
18653;SDS011;9456;47.824;16.228;2023-04-24T09:57:50;1.40;;;1.30;;
18653;SDS011;9456;47.824;16.228;2023-04-24T10:00:20;0.60;;;0.60;;
18653;SDS011;9456;47.824;16.228;2023-04-24T10:02:55;0.30;;;0.30;;
18653;SDS011;9456;47.824;16.228;2023-04-24T10:05:26;1.50;;;0.30;;
18653;SDS011;9456;47.824;16.228;2023-04-24T10:07:57;0.30;;;0.30;;
18653;SDS011;9456;47.824;16.228;2023-04-24T10:10:28;0.40;;;0.40;;
18653;SDS011;9456;47.824;16.228;2023-04-24T10:12:57;0.40;;;0.40;;
18653;SDS011;9456;47.824;16.228;2023-04-24T10:15:27;1.17;;;0.50;;
18653;SDS011;9456;47.824;16.228;2023-04-24T10:17:57;0.77;;;0.50;;
18653;SDS011;9456;47.824;16.228;2023-04-24T10:20:26;1.33;;;0.50;;
18653;SDS011;9456;47.824;16.228;2023-04-24T10:22:55;0.40;;;0.40;;
18653;SDS011;9456;47.824;16.228;2023-04-24T10:25:24;0.40;;;0.40;;
18653;SDS011;9456;47.824;16.228;2023-04-24T10:30:33;0.60;;;0.40;;
18653;SDS011;9456;47.824;16.228;2023-04-24T10:33:02;0.60;;;0.60;;
18653;SDS011;9456;47.824;16.228;2023-04-24T10:35:32;0.40;;;0.40;;
18653;SDS011;9456;47.824;16.228;2023-04-24T10:38:02;0.67;;;0.30;;
18653;SDS011;9456;47.824;16.228;2023-04-24T10:40:31;0.23;;;0.23;;
18653;SDS011;9456;47.824;16.228;2023-04-24T10:43:01;0.30;;;0.30;;
18653;SDS011;9456;47.824;16.228;2023-04-24T10:45:30;0.20;;;0.20;;
18653;SDS011;9456;47.824;16.228;2023-04-24T10:48:00;0.20;;;0.20;;
18653;SDS011;9456;47.824;16.228;2023-04-24T10:50:30;0.63;;;0.33;;
18653;SDS011;9456;47.824;16.228;2023-04-24T10:53:06;1.50;;;0.60;;
18653;SDS011;9456;47.824;16.228;2023-04-24T10:55:40;0.80;;;0.60;;
18653;SDS011;9456;47.824;16.228;2023-04-24T10:58:11;0.73;;;0.73;;
18653;SDS011;9456;47.824;16.228;2023-04-24T11:00:41;1.97;;;0.80;;
18653;SDS011;9456;47.824;16.228;2023-04-24T11:03:22;0.63;;;0.40;;
18653;SDS011;9456;47.824;16.228;2023-04-24T11:05:59;1.00;;;0.60;;
18653;SDS011;9456;47.824;16.228;2023-04-24T11:08:31;0.50;;;0.40;;
18653;SDS011;9456;47.824;16.228;2023-04-24T11:11:02;0.50;;;0.50;;
18653;SDS011;9456;47.824;16.228;2023-04-24T11:16:32;1.10;;;1.00;;
18653;SDS011;9456;47.824;16.228;2023-04-24T11:19:01;1.80;;;0.70;;
18653;SDS011;9456;47.824;16.228;2023-04-24T11:21:32;0.50;;;0.50;;
18653;SDS011;9456;47.824;16.228;2023-04-24T11:24:22;1.07;;;0.77;;
18653;SDS011;9456;47.824;16.228;2023-04-24T11:26:52;0.37;;;0.37;;
18653;SDS011;9456;47.824;16.228;2023-04-24T11:29:22;0.50;;;0.50;;
18653;SDS011;9456;47.824;16.228;2023-04-24T11:31:51;0.43;;;0.43;;
18653;SDS011;9456;47.824;16.228;2023-04-24T11:34:20;0.30;;;0.30;;
18653;SDS011;9456;47.824;16.228;2023-04-24T11:36:49;0.80;;;0.60;;
18653;SDS011;9456;47.824;16.228;2023-04-24T11:39:18;0.70;;;0.70;;
18653;SDS011;9456;47.824;16.228;2023-04-24T11:41:47;1.67;;;1.40;;
18653;SDS011;9456;47.824;16.228;2023-04-24T11:44:16;3.97;;;3.57;;
18653;SDS011;9456;47.824;16.228;2023-04-24T11:46:45;2.87;;;2.67;;
18653;SDS011;9456;47.824;16.228;2023-04-24T11:49:14;6.60;;;1.93;;
18653;SDS011;9456;47.824;16.228;2023-04-24T11:51:43;1.57;;;1.47;;
18653;SDS011;9456;47.824;16.228;2023-04-24T11:54:12;2.17;;;1.50;;
18653;SDS011;9456;47.824;16.228;2023-04-24T11:56:45;1.53;;;1.43;;
18653;SDS011;9456;47.824;16.228;2023-04-24T11:59:14;1.37;;;1.23;;
18653;SDS011;9456;47.824;16.228;2023-04-24T12:01:44;2.30;;;1.00;;
18653;SDS011;9456;47.824;16.228;2023-04-24T12:04:13;0.90;;;0.67;;
18653;SDS011;9456;47.824;16.228;2023-04-24T12:06:59;0.50;;;0.43;;
18653;SDS011;9456;47.824;16.228;2023-04-24T12:09:28;0.77;;;0.77;;
18653;SDS011;9456;47.824;16.228;2023-04-24T12:11:57;0.93;;;0.90;;
18653;SDS011;9456;47.824;16.228;2023-04-24T12:14:26;1.17;;;0.90;;
18653;SDS011;9456;47.824;16.228;2023-04-24T12:16:55;1.50;;;0.80;;
18653;SDS011;9456;47.824;16.228;2023-04-24T12:19:24;0.50;;;0.50;;
18653;SDS011;9456;47.824;16.228;2023-04-24T12:22:00;0.60;;;0.60;;
18653;SDS011;9456;47.824;16.228;2023-04-24T12:24:29;2.57;;;0.40;;
18653;SDS011;9456;47.824;16.228;2023-04-24T12:26:58;0.60;;;0.53;;
18653;SDS011;9456;47.824;16.228;2023-04-24T12:29:27;1.73;;;0.90;;
18653;SDS011;9456;47.824;16.228;2023-04-24T12:31:56;0.63;;;0.63;;
18653;SDS011;9456;47.824;16.228;2023-04-24T12:34:26;0.57;;;0.57;;
18653;SDS011;9456;47.824;16.228;2023-04-24T12:36:55;0.60;;;0.60;;
18653;SDS011;9456;47.824;16.228;2023-04-24T12:39:24;0.70;;;0.70;;
18653;SDS011;9456;47.824;16.228;2023-04-24T12:41:56;1.03;;;0.93;;
18653;SDS011;9456;47.824;16.228;2023-04-24T12:44:32;1.90;;;0.77;;
18653;SDS011;9456;47.824;16.228;2023-04-24T12:47:01;1.53;;;1.10;;
18653;SDS011;9456;47.824;16.228;2023-04-24T12:49:30;1.17;;;1.00;;
18653;SDS011;9456;47.824;16.228;2023-04-24T12:51:59;0.93;;;0.80;;
18653;SDS011;9456;47.824;16.228;2023-04-24T12:54:32;1.00;;;0.83;;
18653;SDS011;9456;47.824;16.228;2023-04-24T12:57:03;1.70;;;0.63;;
18653;SDS011;9456;47.824;16.228;2023-04-24T12:59:32;2.47;;;0.50;;
18653;SDS011;9456;47.824;16.228;2023-04-24T13:02:01;0.47;;;0.43;;
18653;SDS011;9456;47.824;16.228;2023-04-24T13:04:30;1.03;;;0.70;;
18653;SDS011;9456;47.824;16.228;2023-04-24T13:06:59;0.50;;;0.50;;
18653;SDS011;9456;47.824;16.228;2023-04-24T13:09:30;1.17;;;1.07;;
18653;SDS011;9456;47.824;16.228;2023-04-24T13:11:57;0.70;;;0.70;;
18653;SDS011;9456;47.824;16.228;2023-04-24T13:14:26;0.67;;;0.67;;
18653;SDS011;9456;47.824;16.228;2023-04-24T13:16:55;1.27;;;0.60;;
18653;SDS011;9456;47.824;16.228;2023-04-24T13:19:25;1.03;;;0.40;;
18653;SDS011;9456;47.824;16.228;2023-04-24T13:21:54;0.50;;;0.50;;
18653;SDS011;9456;47.824;16.228;2023-04-24T13:24:23;0.60;;;0.60;;
18653;SDS011;9456;47.824;16.228;2023-04-24T13:26:52;0.40;;;0.40;;
18653;SDS011;9456;47.824;16.228;2023-04-24T13:29:21;0.80;;;0.50;;
18653;SDS011;9456;47.824;16.228;2023-04-24T13:31:51;0.70;;;0.70;;
18653;SDS011;9456;47.824;16.228;2023-04-24T13:34:20;2.70;;;1.70;;
18653;SDS011;9456;47.824;16.228;2023-04-24T13:36:49;3.47;;;2.40;;
18653;SDS011;9456;47.824;16.228;2023-04-24T13:39:18;2.00;;;1.47;;
18653;SDS011;9456;47.824;16.228;2023-04-24T13:41:48;0.70;;;0.70;;
18653;SDS011;9456;47.824;16.228;2023-04-24T13:44:17;0.57;;;0.57;;
18653;SDS011;9456;47.824;16.228;2023-04-24T13:46:46;1.87;;;1.77;;
18653;SDS011;9456;47.824;16.228;2023-04-24T13:49:15;0.90;;;0.90;;
18653;SDS011;9456;47.824;16.228;2023-04-24T13:51:44;0.90;;;0.90;;
18653;SDS011;9456;47.824;16.228;2023-04-24T13:54:13;0.80;;;0.80;;
18653;SDS011;9456;47.824;16.228;2023-04-24T13:56:42;1.07;;;1.07;;
18653;SDS011;9456;47.824;16.228;2023-04-24T13:59:11;0.90;;;0.90;;
18653;SDS011;9456;47.824;16.228;2023-04-24T14:01:40;1.93;;;1.60;;
18653;SDS011;9456;47.824;16.228;2023-04-24T14:04:09;2.30;;;2.10;;
18653;SDS011;9456;47.824;16.228;2023-04-24T14:06:38;1.40;;;1.30;;
18653;SDS011;9456;47.824;16.228;2023-04-24T14:09:07;1.10;;;1.10;;
18653;SDS011;9456;47.824;16.228;2023-04-24T14:11:36;1.13;;;1.13;;
18653;SDS011;9456;47.824;16.228;2023-04-24T14:14:05;0.60;;;0.60;;
18653;SDS011;9456;47.824;16.228;2023-04-24T14:16:35;1.10;;;1.10;;
18653;SDS011;9456;47.824;16.228;2023-04-24T14:19:04;1.50;;;1.40;;
18653;SDS011;9456;47.824;16.228;2023-04-24T14:21:33;1.60;;;1.50;;
18653;SDS011;9456;47.824;16.228;2023-04-24T14:24:02;0.90;;;0.70;;
18653;SDS011;9456;47.824;16.228;2023-04-24T14:26:32;2.53;;;0.97;;
18653;SDS011;9456;47.824;16.228;2023-04-24T14:29:01;2.83;;;1.50;;
18653;SDS011;9456;47.824;16.228;2023-04-24T14:31:31;1.03;;;0.80;;
18653;SDS011;9456;47.824;16.228;2023-04-24T14:34:00;4.60;;;2.37;;
18653;SDS011;9456;47.824;16.228;2023-04-24T14:36:29;2.93;;;2.30;;
18653;SDS011;9456;47.824;16.228;2023-04-24T14:38:58;3.60;;;1.67;;
18653;SDS011;9456;47.824;16.228;2023-04-24T14:41:27;3.07;;;1.90;;
18653;SDS011;9456;47.824;16.228;2023-04-24T14:43:56;2.80;;;1.70;;
18653;SDS011;9456;47.824;16.228;2023-04-24T14:46:25;2.70;;;1.20;;
18653;SDS011;9456;47.824;16.228;2023-04-24T14:48:57;1.40;;;1.30;;
18653;SDS011;9456;47.824;16.228;2023-04-24T14:51:26;1.10;;;1.00;;
18653;SDS011;9456;47.824;16.228;2023-04-24T14:53:55;1.43;;;1.33;;
18653;SDS011;9456;47.824;16.228;2023-04-24T14:56:25;1.50;;;1.40;;
18653;SDS011;9456;47.824;16.228;2023-04-24T14:58:54;4.20;;;3.73;;
18653;SDS011;9456;47.824;16.228;2023-04-24T15:01:24;1.30;;;1.20;;
18653;SDS011;9456;47.824;16.228;2023-04-24T15:03:53;1.40;;;1.40;;
18653;SDS011;9456;47.824;16.228;2023-04-24T15:06:22;1.20;;;1.20;;
18653;SDS011;9456;47.824;16.228;2023-04-24T15:08:51;3.17;;;2.30;;
18653;SDS011;9456;47.824;16.228;2023-04-24T15:11:21;6.60;;;4.40;;
18653;SDS011;9456;47.824;16.228;2023-04-24T15:13:50;19.73;;;11.23;;
18653;SDS011;9456;47.824;16.228;2023-04-24T15:16:19;11.67;;;6.77;;